sensor_id;sensor_type;location;lat;lon;timestamp;pressure;altitude;pressure_sealevel;temperature;humidity
76815;BME280;65768;49.906;19.384;2023-05-16T00:00:22;97712.92;;;10.04;89.71
76815;BME280;65768;49.906;19.384;2023-05-16T00:03:24;97716.55;;;10.09;89.44
76815;BME280;65768;49.906;19.384;2023-05-16T00:06:25;97714.93;;;10.14;89.70
76815;BME280;65768;49.906;19.384;2023-05-16T00:09:03;97711.27;;;10.16;89.22
76815;BME280;65768;49.906;19.384;2023-05-16T00:11:40;97719.60;;;10.21;89.09
76815;BME280;65768;49.906;19.384;2023-05-16T00:14:57;97724.10;;;10.24;88.91
76815;BME280;65768;49.906;19.384;2023-05-16T00:17:30;97722.17;;;10.31;88.56
76815;BME280;65768;49.906;19.384;2023-05-16T00:20:12;97718.48;;;10.36;87.99
76815;BME280;65768;49.906;19.384;2023-05-16T00:23:07;97723.52;;;10.40;87.94
76815;BME280;65768;49.906;19.384;2023-05-16T00:25:49;97722.97;;;10.43;87.83
76815;BME280;65768;49.906;19.384;2023-05-16T00:28:23;97725.42;;;10.41;87.49
76815;BME280;65768;49.906;19.384;2023-05-16T00:31:10;97729.63;;;10.04;89.00
76815;BME280;65768;49.906;19.384;2023-05-16T00:33:43;97732.98;;;9.92;89.72
76815;BME280;65768;49.906;19.384;2023-05-16T00:36:17;97732.50;;;9.87;89.96
76815;BME280;65768;49.906;19.384;2023-05-16T00:38:54;97731.64;;;9.83;90.30
76815;BME280;65768;49.906;19.384;2023-05-16T00:41:54;97733.05;;;9.77;90.48
76815;BME280;65768;49.906;19.384;2023-05-16T00:44:30;97737.59;;;9.74;90.96
76815;BME280;65768;49.906;19.384;2023-05-16T00:47:10;97736.02;;;9.76;90.81
76815;BME280;65768;49.906;19.384;2023-05-16T00:49:44;97738.29;;;9.77;90.54
76815;BME280;65768;49.906;19.384;2023-05-16T00:52:21;97741.95;;;9.75;90.55
76815;BME280;65768;49.906;19.384;2023-05-16T00:54:56;97743.50;;;9.79;90.84
76815;BME280;65768;49.906;19.384;2023-05-16T00:57:30;97738.98;;;9.78;91.11
76815;BME280;65768;49.906;19.384;2023-05-16T01:00:11;97734.11;;;9.76;91.35
76815;BME280;65768;49.906;19.384;2023-05-16T01:03:03;97741.24;;;9.77;91.53
76815;BME280;65768;49.906;19.384;2023-05-16T01:05:46;97732.73;;;9.72;91.81
76815;BME280;65768;49.906;19.384;2023-05-16T01:08:17;97727.34;;;9.73;91.92
76815;BME280;65768;49.906;19.384;2023-05-16T01:10:59;97727.15;;;9.74;92.13
76815;BME280;65768;49.906;19.384;2023-05-16T01:13:47;97728.02;;;9.74;91.93
76815;BME280;65768;49.906;19.384;2023-05-16T01:16:45;97725.59;;;9.78;91.62
76815;BME280;65768;49.906;19.384;2023-05-16T01:27:38;97736.59;;;9.68;92.55
76815;BME280;65768;49.906;19.384;2023-05-16T01:30:19;97734.34;;;9.61;92.93
76815;BME280;65768;49.906;19.384;2023-05-16T01:33:03;97735.91;;;9.60;92.73
76815;BME280;65768;49.906;19.384;2023-05-16T01:36:12;97730.17;;;9.59;93.30
76815;BME280;65768;49.906;19.384;2023-05-16T01:38:58;97725.30;;;9.61;93.26
76815;BME280;65768;49.906;19.384;2023-05-16T01:42:29;97725.64;;;9.64;93.57
76815;BME280;65768;49.906;19.384;2023-05-16T01:44:42;97727.89;;;9.67;93.63
76815;BME280;65768;49.906;19.384;2023-05-16T01:47:15;97726.69;;;9.66;93.78
76815;BME280;65768;49.906;19.384;2023-05-16T01:50:19;97722.15;;;9.62;94.63
76815;BME280;65768;49.906;19.384;2023-05-16T01:53:15;97720.08;;;9.62;94.47
76815;BME280;65768;49.906;19.384;2023-05-16T01:55:55;97720.59;;;9.65;94.45
76815;BME280;65768;49.906;19.384;2023-05-16T01:58:36;97722.84;;;9.67;94.27
76815;BME280;65768;49.906;19.384;2023-05-16T02:01:09;97719.67;;;9.72;94.24
76815;BME280;65768;49.906;19.384;2023-05-16T02:03:52;97716.19;;;9.73;94.26
76815;BME280;65768;49.906;19.384;2023-05-16T02:06:26;97721.74;;;9.77;94.43
76815;BME280;65768;49.906;19.384;2023-05-16T02:08:59;97722.23;;;9.83;94.31
76815;BME280;65768;49.906;19.384;2023-05-16T02:11:33;97720.15;;;9.83;94.29
76815;BME280;65768;49.906;19.384;2023-05-16T02:14:05;97722.78;;;9.81;93.85
76815;BME280;65768;49.906;19.384;2023-05-16T02:16:39;97721.56;;;9.79;94.05
76815;BME280;65768;49.906;19.384;2023-05-16T02:19:21;97725.05;;;9.76;94.44
76815;BME280;65768;49.906;19.384;2023-05-16T02:22:03;97727.34;;;9.75;94.32
76815;BME280;65768;49.906;19.384;2023-05-16T02:24:53;97721.23;;;9.76;94.65
76815;BME280;65768;49.906;19.384;2023-05-16T02:27:31;97725.73;;;9.81;94.36
76815;BME280;65768;49.906;19.384;2023-05-16T02:30:08;97728.16;;;9.83;93.78
76815;BME280;65768;49.906;19.384;2023-05-16T02:35:40;97740.70;;;9.81;94.20
76815;BME280;65768;49.906;19.384;2023-05-16T02:38:16;97738.29;;;9.76;94.13
76815;BME280;65768;49.906;19.384;2023-05-16T02:41:02;97731.83;;;9.81;93.94
76815;BME280;65768;49.906;19.384;2023-05-16T02:44:04;97739.84;;;9.79;94.30
76815;BME280;65768;49.906;19.384;2023-05-16T02:46:50;97733.05;;;9.79;94.67
76815;BME280;65768;49.906;19.384;2023-05-16T02:49:39;97730.05;;;9.86;94.19
76815;BME280;65768;49.906;19.384;2023-05-16T02:52:21;97734.95;;;9.85;94.26
76815;BME280;65768;49.906;19.384;2023-05-16T02:55:01;97734.42;;;9.82;94.28
76815;BME280;65768;49.906;19.384;2023-05-16T02:57:46;97728.54;;;9.77;94.59
76815;BME280;65768;49.906;19.384;2023-05-16T03:00:21;97736.38;;;9.75;94.89
76815;BME280;65768;49.906;19.384;2023-05-16T03:02:59;97734.64;;;9.75;94.33
76815;BME280;65768;49.906;19.384;2023-05-16T03:05:52;97734.98;;;9.75;94.40
76815;BME280;65768;49.906;19.384;2023-05-16T03:08:26;97734.28;;;9.76;94.38
76815;BME280;65768;49.906;19.384;2023-05-16T03:11:18;97728.20;;;9.77;94.24
76815;BME280;65768;49.906;19.384;2023-05-16T03:14:24;97722.63;;;9.78;94.53
76815;BME280;65768;49.906;19.384;2023-05-16T03:16:53;97721.05;;;9.79;94.44
76815;BME280;65768;49.906;19.384;2023-05-16T03:19:37;97727.31;;;9.81;94.13
76815;BME280;65768;49.906;19.384;2023-05-16T03:22:21;97725.23;;;9.78;94.35
76815;BME280;65768;49.906;19.384;2023-05-16T03:24:55;97728.19;;;9.78;94.43
76815;BME280;65768;49.906;19.384;2023-05-16T03:27:29;97733.75;;;9.80;94.44
76815;BME280;65768;49.906;19.384;2023-05-16T03:30:07;97734.23;;;9.87;94.54
76815;BME280;65768;49.906;19.384;2023-05-16T03:32:46;97741.70;;;9.92;94.50
76815;BME280;65768;49.906;19.384;2023-05-16T03:35:24;97747.42;;;9.93;94.21
76815;BME280;65768;49.906;19.384;2023-05-16T03:38:06;97751.42;;;9.97;94.35
76815;BME280;65768;49.906;19.384;2023-05-16T03:40:43;97750.01;;;10.03;93.90
76815;BME280;65768;49.906;19.384;2023-05-16T03:43:22;97748.94;;;10.08;93.46
76815;BME280;65768;49.906;19.384;2023-05-16T03:46:06;97751.52;;;10.11;93.37
76815;BME280;65768;49.906;19.384;2023-05-16T03:48:43;97754.48;;;10.15;93.31
76815;BME280;65768;49.906;19.384;2023-05-16T03:51:17;97751.13;;;10.19;93.40
76815;BME280;65768;49.906;19.384;2023-05-16T03:54:02;97750.77;;;10.22;93.21
76815;BME280;65768;49.906;19.384;2023-05-16T03:56:50;97750.23;;;10.29;92.96
76815;BME280;65768;49.906;19.384;2023-05-16T03:59:25;97750.20;;;10.36;92.42
76815;BME280;65768;49.906;19.384;2023-05-16T04:02:05;97751.38;;;10.41;92.00
76815;BME280;65768;49.906;19.384;2023-05-16T04:04:51;97756.92;;;10.47;91.88
76815;BME280;65768;49.906;19.384;2023-05-16T04:07:24;97757.94;;;10.51;92.16
76815;BME280;65768;49.906;19.384;2023-05-16T04:10:18;97764.70;;;10.55;92.43
76815;BME280;65768;49.906;19.384;2023-05-16T04:12:46;97770.45;;;10.55;92.69
76815;BME280;65768;49.906;19.384;2023-05-16T04:15:23;97773.77;;;10.54;92.85
76815;BME280;65768;49.906;19.384;2023-05-16T04:17:55;97774.61;;;10.59;92.60
76815;BME280;65768;49.906;19.384;2023-05-16T04:20:33;97780.14;;;10.65;93.44
76815;BME280;65768;49.906;19.384;2023-05-16T04:23:03;97775.02;;;10.74;93.23
76815;BME280;65768;49.906;19.384;2023-05-16T04:25:42;97779.61;;;10.91;92.78
76815;BME280;65768;49.906;19.384;2023-05-16T04:28:14;97788.42;;;11.01;92.61
76815;BME280;65768;49.906;19.384;2023-05-16T04:30:44;97791.28;;;11.13;91.89
76815;BME280;65768;49.906;19.384;2023-05-16T04:33:22;97787.16;;;11.24;91.41
76815;BME280;65768;49.906;19.384;2023-05-16T04:36:00;97791.47;;;11.30;92.81
76815;BME280;65768;49.906;19.384;2023-05-16T04:38:29;97792.14;;;11.33;91.93
76815;BME280;65768;49.906;19.384;2023-05-16T04:40:58;97795.53;;;11.43;91.34
76815;BME280;65768;49.906;19.384;2023-05-16T04:43:26;97794.36;;;11.56;90.29
76815;BME280;65768;49.906;19.384;2023-05-16T04:46:00;97798.24;;;11.68;90.51
76815;BME280;65768;49.906;19.384;2023-05-16T04:48:32;97798.98;;;11.82;89.94
76815;BME280;65768;49.906;19.384;2023-05-16T04:51:01;97806.11;;;12.01;89.24
76815;BME280;65768;49.906;19.384;2023-05-16T04:53:29;97806.00;;;12.23;88.54
76815;BME280;65768;49.906;19.384;2023-05-16T04:56:01;97807.59;;;12.37;88.38
76815;BME280;65768;49.906;19.384;2023-05-16T04:58:29;97806.70;;;12.49;88.05
76815;BME280;65768;49.906;19.384;2023-05-16T05:00:58;97808.98;;;12.62;88.81
76815;BME280;65768;49.906;19.384;2023-05-16T05:03:27;97808.77;;;12.75;87.45
76815;BME280;65768;49.906;19.384;2023-05-16T05:05:55;97806.47;;;12.89;86.11
76815;BME280;65768;49.906;19.384;2023-05-16T05:08:24;97806.06;;;13.04;84.01
76815;BME280;65768;49.906;19.384;2023-05-16T05:10:55;97801.60;;;13.20;82.73
76815;BME280;65768;49.906;19.384;2023-05-16T05:13:44;97803.63;;;13.36;82.93
76815;BME280;65768;49.906;19.384;2023-05-16T05:16:12;97807.84;;;13.45;83.10
76815;BME280;65768;49.906;19.384;2023-05-16T05:18:41;97808.02;;;13.54;79.96
76815;BME280;65768;49.906;19.384;2023-05-16T05:21:09;97807.27;;;13.58;79.65
76815;BME280;65768;49.906;19.384;2023-05-16T05:23:38;97803.29;;;13.64;78.96
76815;BME280;65768;49.906;19.384;2023-05-16T05:26:07;97804.55;;;13.73;80.68
76815;BME280;65768;49.906;19.384;2023-05-16T05:28:35;97805.91;;;13.92;79.45
76815;BME280;65768;49.906;19.384;2023-05-16T05:31:04;97806.92;;;14.03;78.70
76815;BME280;65768;49.906;19.384;2023-05-16T05:33:34;97807.70;;;14.25;79.36
76815;BME280;65768;49.906;19.384;2023-05-16T05:36:06;97811.61;;;14.31;76.40
76815;BME280;65768;49.906;19.384;2023-05-16T05:38:34;97816.51;;;14.40;76.85
76815;BME280;65768;49.906;19.384;2023-05-16T05:41:04;97815.49;;;14.56;77.02
76815;BME280;65768;49.906;19.384;2023-05-16T05:43:32;97820.29;;;14.77;76.29
76815;BME280;65768;49.906;19.384;2023-05-16T05:46:01;97816.89;;;14.88;74.46
76815;BME280;65768;49.906;19.384;2023-05-16T05:48:29;97821.70;;;14.92;72.93
76815;BME280;65768;49.906;19.384;2023-05-16T05:50:57;97816.25;;;15.15;73.92
76815;BME280;65768;49.906;19.384;2023-05-16T05:53:25;97814.41;;;15.32;73.03
76815;BME280;65768;49.906;19.384;2023-05-16T05:55:54;97812.00;;;15.50;72.81
76815;BME280;65768;49.906;19.384;2023-05-16T05:58:22;97815.52;;;15.37;71.70
76815;BME280;65768;49.906;19.384;2023-05-16T06:00:50;97819.02;;;15.50;71.60
76815;BME280;65768;49.906;19.384;2023-05-16T06:03:18;97827.61;;;15.58;71.29
76815;BME280;65768;49.906;19.384;2023-05-16T06:05:47;97836.75;;;15.66;70.42
76815;BME280;65768;49.906;19.384;2023-05-16T06:08:15;97831.81;;;15.45;71.27
76815;BME280;65768;49.906;19.384;2023-05-16T06:10:44;97835.71;;;15.65;70.33
76815;BME280;65768;49.906;19.384;2023-05-16T06:13:12;97831.63;;;15.80;70.10
76815;BME280;65768;49.906;19.384;2023-05-16T06:15:40;97829.54;;;15.92;69.76
76815;BME280;65768;49.906;19.384;2023-05-16T06:18:08;97827.66;;;15.97;70.37
76815;BME280;65768;49.906;19.384;2023-05-16T06:20:36;97832.92;;;15.97;68.80
76815;BME280;65768;49.906;19.384;2023-05-16T06:23:04;97829.52;;;15.94;68.45
76815;BME280;65768;49.906;19.384;2023-05-16T06:25:32;97824.17;;;15.83;69.42
76815;BME280;65768;49.906;19.384;2023-05-16T06:28:01;97822.35;;;15.85;69.63
76815;BME280;65768;49.906;19.384;2023-05-16T06:30:29;97824.20;;;16.14;69.79
76815;BME280;65768;49.906;19.384;2023-05-16T06:32:57;97819.96;;;16.21;67.39
76815;BME280;65768;49.906;19.384;2023-05-16T06:35:25;97822.45;;;16.20;66.13
76815;BME280;65768;49.906;19.384;2023-05-16T06:37:53;97826.58;;;16.23;67.06
76815;BME280;65768;49.906;19.384;2023-05-16T06:40:21;97830.69;;;16.21;65.29
76815;BME280;65768;49.906;19.384;2023-05-16T06:42:50;97835.35;;;16.18;65.26
76815;BME280;65768;49.906;19.384;2023-05-16T06:45:18;97829.29;;;16.27;65.76
76815;BME280;65768;49.906;19.384;2023-05-16T06:47:46;97828.19;;;16.40;65.70
76815;BME280;65768;49.906;19.384;2023-05-16T06:50:15;97831.15;;;16.65;65.87
76815;BME280;65768;49.906;19.384;2023-05-16T06:52:43;97834.09;;;16.55;65.41
76815;BME280;65768;49.906;19.384;2023-05-16T06:55:11;97841.20;;;16.53;65.36
76815;BME280;65768;49.906;19.384;2023-05-16T06:57:39;97845.67;;;16.62;65.63
76815;BME280;65768;49.906;19.384;2023-05-16T07:00:08;97846.39;;;16.73;65.95
76815;BME280;65768;49.906;19.384;2023-05-16T07:02:36;97847.13;;;16.72;64.75
76815;BME280;65768;49.906;19.384;2023-05-16T07:05:05;97845.68;;;16.74;64.00
76815;BME280;65768;49.906;19.384;2023-05-16T07:07:34;97846.17;;;16.98;65.04
76815;BME280;65768;49.906;19.384;2023-05-16T07:10:03;97853.97;;;17.36;64.76
76815;BME280;65768;49.906;19.384;2023-05-16T07:12:31;97858.88;;;17.63;62.25
76815;BME280;65768;49.906;19.384;2023-05-16T07:14:59;97856.14;;;17.76;62.40
76815;BME280;65768;49.906;19.384;2023-05-16T07:17:27;97856.00;;;17.96;61.28
76815;BME280;65768;49.906;19.384;2023-05-16T07:19:56;97849.16;;;17.91;61.21
76815;BME280;65768;49.906;19.384;2023-05-16T07:22:24;97849.06;;;18.03;60.61
76815;BME280;65768;49.906;19.384;2023-05-16T07:24:52;97851.11;;;17.95;59.53
76815;BME280;65768;49.906;19.384;2023-05-16T07:27:23;97847.24;;;18.00;60.08
76815;BME280;65768;49.906;19.384;2023-05-16T07:29:52;97841.57;;;18.16;60.47
76815;BME280;65768;49.906;19.384;2023-05-16T07:32:20;97840.07;;;18.37;59.11
76815;BME280;65768;49.906;19.384;2023-05-16T07:34:48;97844.98;;;18.47;58.49
76815;BME280;65768;49.906;19.384;2023-05-16T07:37:16;97849.49;;;18.54;57.78
76815;BME280;65768;49.906;19.384;2023-05-16T07:39:46;97856.60;;;18.72;58.46
76815;BME280;65768;49.906;19.384;2023-05-16T07:42:14;97862.70;;;19.02;59.08
76815;BME280;65768;49.906;19.384;2023-05-16T07:44:42;97873.16;;;19.32;59.30
76815;BME280;65768;49.906;19.384;2023-05-16T07:47:10;97881.83;;;19.28;58.32
76815;BME280;65768;49.906;19.384;2023-05-16T07:49:38;97882.83;;;19.07;59.42
76815;BME280;65768;49.906;19.384;2023-05-16T07:52:06;97887.27;;;18.97;59.89
76815;BME280;65768;49.906;19.384;2023-05-16T07:54:35;97883.84;;;18.85;58.84
76815;BME280;65768;49.906;19.384;2023-05-16T07:57:03;97876.91;;;18.95;59.23
76815;BME280;65768;49.906;19.384;2023-05-16T07:59:31;97872.38;;;19.07;59.41
76815;BME280;65768;49.906;19.384;2023-05-16T08:01:59;97870.66;;;19.10;59.60
76815;BME280;65768;49.906;19.384;2023-05-16T08:04:27;97875.23;;;19.06;60.03
76815;BME280;65768;49.906;19.384;2023-05-16T08:06:56;97882.41;;;19.04;59.75
76815;BME280;65768;49.906;19.384;2023-05-16T08:09:24;97883.03;;;18.73;58.28
76815;BME280;65768;49.906;19.384;2023-05-16T08:11:52;97878.66;;;18.82;59.43
76815;BME280;65768;49.906;19.384;2023-05-16T08:14:22;97880.73;;;18.88;58.43
76815;BME280;65768;49.906;19.384;2023-05-16T08:16:50;97888.46;;;18.98;58.69
76815;BME280;65768;49.906;19.384;2023-05-16T08:19:18;97892.89;;;19.20;57.51
76815;BME280;65768;49.906;19.384;2023-05-16T08:21:46;97885.92;;;19.36;57.61
76815;BME280;65768;49.906;19.384;2023-05-16T08:24:15;97888.39;;;19.09;56.34
76815;BME280;65768;49.906;19.384;2023-05-16T08:26:43;97894.96;;;18.56;57.11
76815;BME280;65768;49.906;19.384;2023-05-16T08:29:11;97893.41;;;18.79;58.04
76815;BME280;65768;49.906;19.384;2023-05-16T08:31:39;97899.63;;;18.92;56.20
76815;BME280;65768;49.906;19.384;2023-05-16T08:34:07;97892.98;;;18.95;56.14
76815;BME280;65768;49.906;19.384;2023-05-16T08:36:37;97894.89;;;19.10;57.41
76815;BME280;65768;49.906;19.384;2023-05-16T08:39:05;97895.90;;;19.02;57.12
76815;BME280;65768;49.906;19.384;2023-05-16T08:41:34;97888.84;;;19.20;56.74
76815;BME280;65768;49.906;19.384;2023-05-16T08:44:03;97884.79;;;19.24;56.67
76815;BME280;65768;49.906;19.384;2023-05-16T08:46:32;97874.41;;;19.40;58.99
76815;BME280;65768;49.906;19.384;2023-05-16T08:49:03;97866.00;;;19.60;59.31
76815;BME280;65768;49.906;19.384;2023-05-16T08:51:36;97873.06;;;19.39;57.41
76815;BME280;65768;49.906;19.384;2023-05-16T08:54:11;97878.73;;;19.34;57.74
76815;BME280;65768;49.906;19.384;2023-05-16T08:56:43;97881.42;;;19.72;56.70
76815;BME280;65768;49.906;19.384;2023-05-16T08:59:12;97878.31;;;19.71;57.41
76815;BME280;65768;49.906;19.384;2023-05-16T09:01:40;97885.05;;;19.71;56.12
76815;BME280;65768;49.906;19.384;2023-05-16T09:04:09;97891.84;;;20.19;56.18
76815;BME280;65768;49.906;19.384;2023-05-16T09:06:37;97889.54;;;20.51;56.21
76815;BME280;65768;49.906;19.384;2023-05-16T09:09:05;97887.09;;;20.50;53.50
76815;BME280;65768;49.906;19.384;2023-05-16T09:11:34;97885.11;;;20.15;54.15
76815;BME280;65768;49.906;19.384;2023-05-16T09:14:02;97880.89;;;20.18;54.46
76815;BME280;65768;49.906;19.384;2023-05-16T09:16:32;97880.85;;;20.39;53.28
76815;BME280;65768;49.906;19.384;2023-05-16T09:19:00;97876.04;;;20.52;53.87
76815;BME280;65768;49.906;19.384;2023-05-16T09:21:30;97872.08;;;20.61;53.82
76815;BME280;65768;49.906;19.384;2023-05-16T09:24:03;97874.58;;;20.45;54.24
76815;BME280;65768;49.906;19.384;2023-05-16T09:26:32;97871.86;;;20.42;54.04
76815;BME280;65768;49.906;19.384;2023-05-16T09:29:01;97866.90;;;20.74;56.15
76815;BME280;65768;49.906;19.384;2023-05-16T09:31:29;97873.18;;;20.72;53.80
76815;BME280;65768;49.906;19.384;2023-05-16T09:34:06;97874.77;;;20.28;53.19
76815;BME280;65768;49.906;19.384;2023-05-16T09:36:36;97868.60;;;20.56;53.94
76815;BME280;65768;49.906;19.384;2023-05-16T09:39:07;97874.48;;;20.55;56.41
76815;BME280;65768;49.906;19.384;2023-05-16T09:41:35;97873.95;;;21.16;53.74
76815;BME280;65768;49.906;19.384;2023-05-16T09:44:04;97873.36;;;21.21;52.67
76815;BME280;65768;49.906;19.384;2023-05-16T09:46:36;97875.48;;;21.14;51.76
76815;BME280;65768;49.906;19.384;2023-05-16T09:49:04;97874.23;;;21.07;52.75
76815;BME280;65768;49.906;19.384;2023-05-16T09:51:33;97874.02;;;21.07;51.88
76815;BME280;65768;49.906;19.384;2023-05-16T09:54:01;97872.83;;;20.95;54.40
76815;BME280;65768;49.906;19.384;2023-05-16T09:56:29;97874.64;;;20.60;54.58
76815;BME280;65768;49.906;19.384;2023-05-16T09:58:57;97869.65;;;20.49;54.48
76815;BME280;65768;49.906;19.384;2023-05-16T10:01:25;97865.10;;;20.55;54.32
76815;BME280;65768;49.906;19.384;2023-05-16T10:03:53;97865.60;;;20.52;52.94
76815;BME280;65768;49.906;19.384;2023-05-16T10:06:22;97860.39;;;20.53;54.24
76815;BME280;65768;49.906;19.384;2023-05-16T10:08:50;97866.30;;;20.44;55.50
76815;BME280;65768;49.906;19.384;2023-05-16T10:11:18;97865.05;;;20.24;54.42
76815;BME280;65768;49.906;19.384;2023-05-16T10:13:48;97863.14;;;20.15;56.05
76815;BME280;65768;49.906;19.384;2023-05-16T10:16:21;97857.22;;;20.09;55.38
76815;BME280;65768;49.906;19.384;2023-05-16T10:18:51;97857.05;;;20.17;56.30
76815;BME280;65768;49.906;19.384;2023-05-16T10:21:21;97849.86;;;20.71;55.79
76815;BME280;65768;49.906;19.384;2023-05-16T10:23:50;97846.03;;;20.88;53.44
76815;BME280;65768;49.906;19.384;2023-05-16T10:26:21;97838.27;;;20.88;55.30
76815;BME280;65768;49.906;19.384;2023-05-16T10:28:52;97839.84;;;20.41;53.67
76815;BME280;65768;49.906;19.384;2023-05-16T10:31:21;97838.30;;;20.32;54.02
76815;BME280;65768;49.906;19.384;2023-05-16T10:33:49;97836.71;;;20.36;54.97
76815;BME280;65768;49.906;19.384;2023-05-16T10:36:18;97842.55;;;19.88;54.54
76815;BME280;65768;49.906;19.384;2023-05-16T10:38:47;97847.05;;;19.86;54.92
76815;BME280;65768;49.906;19.384;2023-05-16T10:41:17;97853.23;;;19.87;54.53
76815;BME280;65768;49.906;19.384;2023-05-16T10:43:55;97850.34;;;20.00;55.06
76815;BME280;65768;49.906;19.384;2023-05-16T10:46:26;97846.22;;;20.14;54.51
76815;BME280;65768;49.906;19.384;2023-05-16T10:48:56;97847.14;;;20.05;55.67
76815;BME280;65768;49.906;19.384;2023-05-16T10:51:35;97852.14;;;19.79;54.51
76815;BME280;65768;49.906;19.384;2023-05-16T10:54:08;97847.13;;;19.63;55.99
76815;BME280;65768;49.906;19.384;2023-05-16T10:56:37;97844.30;;;19.59;55.40
76815;BME280;65768;49.906;19.384;2023-05-16T10:59:24;97840.32;;;19.78;54.74
76815;BME280;65768;49.906;19.384;2023-05-16T11:01:55;97839.08;;;19.66;54.49
76815;BME280;65768;49.906;19.384;2023-05-16T11:04:49;97846.57;;;19.73;55.55
76815;BME280;65768;49.906;19.384;2023-05-16T11:07:20;97846.48;;;19.76;53.66
76815;BME280;65768;49.906;19.384;2023-05-16T11:10:02;97843.85;;;19.95;53.28
76815;BME280;65768;49.906;19.384;2023-05-16T11:12:47;97843.95;;;20.05;52.44
76815;BME280;65768;49.906;19.384;2023-05-16T11:15:22;97839.36;;;20.36;51.47
76815;BME280;65768;49.906;19.384;2023-05-16T11:18:02;97839.91;;;20.16;52.91
76815;BME280;65768;49.906;19.384;2023-05-16T11:20:33;97838.42;;;20.02;54.60
76815;BME280;65768;49.906;19.384;2023-05-16T11:23:28;97836.68;;;19.93;53.56
76815;BME280;65768;49.906;19.384;2023-05-16T11:25:57;97838.23;;;19.86;53.02
76815;BME280;65768;49.906;19.384;2023-05-16T11:28:27;97838.89;;;20.11;52.30
76815;BME280;65768;49.906;19.384;2023-05-16T11:30:57;97839.91;;;20.24;54.92
76815;BME280;65768;49.906;19.384;2023-05-16T11:33:26;97838.27;;;20.09;53.59
76815;BME280;65768;49.906;19.384;2023-05-16T11:36:04;97835.63;;;19.85;52.60
76815;BME280;65768;49.906;19.384;2023-05-16T11:38:33;97838.59;;;19.98;54.61
76815;BME280;65768;49.906;19.384;2023-05-16T11:41:06;97835.28;;;19.97;55.49
76815;BME280;65768;49.906;19.384;2023-05-16T11:43:40;97839.61;;;19.83;53.91
76815;BME280;65768;49.906;19.384;2023-05-16T11:46:15;97845.98;;;19.78;54.03
76815;BME280;65768;49.906;19.384;2023-05-16T11:48:43;97846.90;;;19.65;53.97
76815;BME280;65768;49.906;19.384;2023-05-16T11:51:17;97846.38;;;19.69;56.02
76815;BME280;65768;49.906;19.384;2023-05-16T11:53:48;97843.10;;;19.58;55.93
76815;BME280;65768;49.906;19.384;2023-05-16T11:56:19;97844.16;;;19.53;57.57
76815;BME280;65768;49.906;19.384;2023-05-16T11:58:49;97844.16;;;19.58;56.07
76815;BME280;65768;49.906;19.384;2023-05-16T12:01:17;97842.61;;;19.57;53.53
76815;BME280;65768;49.906;19.384;2023-05-16T12:03:53;97839.33;;;19.55;54.97
76815;BME280;65768;49.906;19.384;2023-05-16T12:06:22;97845.18;;;19.68;54.33
76815;BME280;65768;49.906;19.384;2023-05-16T12:08:50;97841.34;;;19.71;55.33
76815;BME280;65768;49.906;19.384;2023-05-16T12:11:18;97839.00;;;19.63;55.18
76815;BME280;65768;49.906;19.384;2023-05-16T12:13:49;97839.20;;;19.50;53.39
76815;BME280;65768;49.906;19.384;2023-05-16T12:16:17;97838.83;;;19.50;55.42
76815;BME280;65768;49.906;19.384;2023-05-16T12:18:46;97835.76;;;19.60;55.10
76815;BME280;65768;49.906;19.384;2023-05-16T12:21:14;97833.11;;;19.64;55.18
76815;BME280;65768;49.906;19.384;2023-05-16T12:23:43;97829.14;;;19.53;55.94
76815;BME280;65768;49.906;19.384;2023-05-16T12:26:11;97831.61;;;19.54;56.71
76815;BME280;65768;49.906;19.384;2023-05-16T12:28:39;97835.93;;;19.43;57.28
76815;BME280;65768;49.906;19.384;2023-05-16T12:31:17;97831.80;;;19.32;57.92
76815;BME280;65768;49.906;19.384;2023-05-16T12:33:47;97832.18;;;19.31;58.15
76815;BME280;65768;49.906;19.384;2023-05-16T12:36:16;97827.90;;;19.32;59.22
76815;BME280;65768;49.906;19.384;2023-05-16T12:38:47;97824.66;;;19.21;59.05
76815;BME280;65768;49.906;19.384;2023-05-16T12:41:20;97824.48;;;19.16;59.44
76815;BME280;65768;49.906;19.384;2023-05-16T12:43:49;97815.95;;;19.05;59.64
76815;BME280;65768;49.906;19.384;2023-05-16T12:46:18;97814.07;;;18.85;59.44
76815;BME280;65768;49.906;19.384;2023-05-16T12:48:46;97813.80;;;18.78;59.16
76815;BME280;65768;49.906;19.384;2023-05-16T12:51:16;97810.66;;;18.82;60.44
76815;BME280;65768;49.906;19.384;2023-05-16T12:53:47;97810.60;;;18.84;60.52
76815;BME280;65768;49.906;19.384;2023-05-16T12:56:15;97804.39;;;18.89;59.44
76815;BME280;65768;49.906;19.384;2023-05-16T12:58:43;97807.25;;;18.92;58.70
76815;BME280;65768;49.906;19.384;2023-05-16T13:01:12;97796.67;;;18.83;58.30
76815;BME280;65768;49.906;19.384;2023-05-16T13:03:40;97797.13;;;18.90;58.92
76815;BME280;65768;49.906;19.384;2023-05-16T13:06:08;97796.46;;;18.97;59.77
76815;BME280;65768;49.906;19.384;2023-05-16T13:08:37;97791.08;;;18.99;60.31
76815;BME280;65768;49.906;19.384;2023-05-16T13:11:05;97792.01;;;18.98;60.87
76815;BME280;65768;49.906;19.384;2023-05-16T13:13:33;97791.92;;;19.04;62.01
76815;BME280;65768;49.906;19.384;2023-05-16T13:16:04;97785.35;;;19.05;61.63
76815;BME280;65768;49.906;19.384;2023-05-16T13:18:33;97786.17;;;18.98;59.97
76815;BME280;65768;49.906;19.384;2023-05-16T13:21:03;97787.23;;;18.85;61.14
76815;BME280;65768;49.906;19.384;2023-05-16T13:23:31;97783.06;;;18.83;60.09
76815;BME280;65768;49.906;19.384;2023-05-16T13:26:00;97778.42;;;18.75;60.61
76815;BME280;65768;49.906;19.384;2023-05-16T13:28:28;97780.68;;;18.76;61.30
76815;BME280;65768;49.906;19.384;2023-05-16T13:30:56;97776.29;;;18.76;61.44
76815;BME280;65768;49.906;19.384;2023-05-16T13:33:25;97781.91;;;18.90;62.01
76815;BME280;65768;49.906;19.384;2023-05-16T13:35:53;97783.95;;;18.83;62.10